AirNav   Everest Fuels
 
 1466 users online  

AL32 Flying BK Ranch Airport
Cedar Bluff, Alabama, USA

GOING TO CEDAR BLUFF?


FAA INFORMATION EFFECTIVE 16 JULY 2020

Location

FAA Identifier: AL32
Lat/Long: 34-19-21.3200N 085-38-37.3700W
34-19.355333N 085-38.622833W
34.3225889,-85.6437139
(estimated)
Elevation: 670 ft. / 204 m (estimated)
Variation: 03W (2000)
From city: 6 miles W of CEDAR BLUFF, AL
Time zone: UTC -5 (UTC -6 during Standard Time)
Zip code: 35973

Airport Operations

Airport use: Private use. Permission required prior to landing
Activation date: 10/2002
Control tower: no
ARTCC: ATLANTA CENTER
FSS: ANNISTON FLIGHT SERVICE STATION
Attendance: UNATNDD
Wind indicator: yes
Segmented circle: no

Airport Communications

WX AWOS-3PT at 4A9 (10 nm NW): 119.025 (256-845-5397)

Nearby radio navigation aids

VOR radial/distance  VOR name  Freq  Var
RMGr289/27.7ROME VORTAC115.4001E
GADr044/30.1GADSDEN VOR/DME112.3002E

 
NDB name  Hdg/Dist  Freq  Var  ID
FORT PAYNE177/12.042604WFTP ..-. - .--.

Airport Services

Runway Information

Runway 4/22

Dimensions: 2600 x 75 ft. / 792 x 23 m
Surface: turf
Runway edge markings: RWY EDGE MKD WITH WHITE DISKS FLUSH WITH GND; SPACED 100 FT.
RUNWAY 4  RUNWAY 22
Traffic pattern: leftleft
Displaced threshold: 481 ft.
DSPLCD THR MKD WITH WHITE DISC FLUSH WITH GND.
541 ft.
DSPLCD THR MKD WITH WHITE DISC FLUSH WITH GND.
Obstructions: 30 ft. trees, 500 ft. from runway, 200 ft. right of centerline50 ft. tree, 996 ft. from runway
30 FT PLINE 1000 FT FROM THR.

Airport Ownership and Management from official FAA records

Ownership: Privately-owned
Owner: WILLIAM R. DURHAM
3996 CANTON HWY
CUMMING, GA 30040
Phone (404) 626-0822
Manager: WILLIAM R. DURHAM
3996 CANTON HWY
CUMMING, GA 30040
Phone (404) 626-0822

Airport Operational Statistics

Aircraft based on the field: 4
Single engine airplanes: 3
Ultralights: 1
    

Additional Remarks

FOR CD CTC ATLANTA ARTCC AT 770-210-7692.
PPR RQR TO LND.

Instrument Procedures

There are no published instrument procedures at AL32.

Some nearby airports with instrument procedures:

4A9 - Isbell Field Airport (10 nm NW)
KPYP - Centre-Piedmont-Cherokee County Regional Airport (14 nm S)
KRMG - Richard B. Russell Regional Airport - J.H. Towers Field (24 nm E)
9A5 - Barwick Lafayette Airport (28 nm NE)
4A6 - Scottsboro Municipal Airport-Word Field (28 nm NW)
 
Loc | Ops | Rwys | IFR | FBO | Links
Com | Nav | Svcs | Stats | Notes
Area around AL32 (Flying BK Ranch Airport)
 
Road maps at: MapQuest Bing Google
 
Aerial photo
WARNING: Photo may not be current or correct
Aerial photo of AL32 (Flying BK Ranch Airport)
Photo taken 04-Oct-2008

Do you have a better or more recent aerial photo of Flying BK Ranch Airport that you would like to share? If so, please send us your photo.

 
Sectional chart

 
Airport distance calculator
Flying to Flying BK Ranch Airport? Find the distance to fly.

From to AL32

Sunrise and sunset
Times for 05-Aug-2020
 Local
(UTC-5)
 Zulu
(UTC)
Morning civil twilight05:3110:31
Sunrise05:5810:58
Sunset19:3900:39
Evening civil twilight20:0601:06

Current date and time
Zulu (UTC)  05-Aug-2020 19:35:37
Local (UTC-5)  05-Aug-2020 14:35:37
 
METAR
K4A9 
10nm NW 
051915Z AUTO 32006KT 7SM CLR 30/22 A3001 RMK AO2 T02980217
TAF
KANB 
46nm S 
051720Z 0518/0618 25006KT P6SM VCTS SCT050CB FM060100 VRB02KT P6SM SCT150
KCHA 
48nm NE 
051720Z 0518/0618 VRB03KT P6SM VCSH FEW030 SCT150 FM052100 30004KT P6SM VCTS SCT080CB TEMPO 0522/0524 4SM TSRA SCT045CB FM060000 VRB03KT P6SM SCT120 FM060900 00000KT P6SM BKN070 PROB30 0617/0618 4SM -SHRA BR BKN080
KASN 
50nm SW 
051720Z 0518/0618 25006KT P6SM VCTS SCT050CB FM060100 VRB02KT P6SM SCT150
NOTAMs
Click for the latest NOTAMs
NOTAMs are issued by the DoD/FAA and will open in a separate window not controlled by AirNav.

 

 
 

Would you like to see your business listed on this page?

 If your business provides an interesting product or service to pilots, flight crews, aircraft, or users of the Flying BK Ranch Airport, you should consider listing it here.  To start the listing process, click on the button below
 
Add a business
 

Other Pages about Flying BK Ranch Airport

Update a link
 
Copyright © AirNav, LLC. All rights reserved. Privacy Policy  Contact